Time;durP1;ratioP1;P1;durP2;ratioP2;P2;SDS_P1;SDS_P2;PMS_P1;PMS_P2;Temp;Humidity;BMP_temperature;BMP_pressure;BME280_temperature;BME280_humidity;BME280_pressure;Samples;Min_cycle;Max_cycle;Signal;HPM_P1;HPM_P2
2023/01/03 00:01:58;;;;;;;5.57;2.20;;;;;;;7.74;62.11;101541.66;6294137;22;20016;-71
2023/01/03 00:04:24;;;;;;;6.07;1.98;;;;;;;7.96;61.55;101548.00;6293879;22;20026;-71
2023/01/03 00:06:52;;;;;;;8.10;2.03;;;;;;;7.81;61.79;101552.69;6293158;22;20028;-71
2023/01/03 00:09:21;;;;;;;4.50;1.80;;;;;;;7.68;61.88;101550.16;6293775;22;20020;-70
2023/01/03 00:14:38;;;;;;;5.25;2.38;;;;;;;7.62;62.14;101558.63;6293765;22;20046;-71
2023/01/03 00:17:06;;;;;;;6.13;2.03;;;;;;;7.67;61.90;101559.13;6292446;22;20043;-71
2023/01/03 00:19:39;;;;;;;8.70;1.90;;;;;;;7.82;61.88;101570.44;6295491;22;20024;-71
2023/01/03 00:22:07;;;;;;;6.47;2.05;;;;;;;7.74;61.76;101572.84;6293515;22;20024;-70
2023/01/03 00:24:33;;;;;;;5.53;1.83;;;;;;;7.81;61.97;101574.06;6294082;22;20054;-71
2023/01/03 00:27:00;;;;;;;7.75;2.10;;;;;;;7.77;61.97;101583.28;6293276;22;20076;-71
2023/01/03 00:29:27;;;;;;;7.88;1.63;;;;;;;7.77;61.74;101575.28;6293406;22;20031;-71
2023/01/03 00:31:53;;;;;;;16.92;1.80;;;;;;;7.62;62.27;101580.00;6291791;22;20040;-71
2023/01/03 00:34:20;;;;;;;6.57;2.45;;;;;;;7.59;62.51;101581.09;6293546;22;20075;-71
2023/01/03 00:36:46;;;;;;;8.43;1.77;;;;;;;7.56;62.55;101591.16;6291352;22;20031;-71
2023/01/03 00:39:13;;;;;;;5.60;1.63;;;;;;;7.73;61.55;101597.84;6294772;22;20027;-71
2023/01/03 00:41:40;;;;;;;3.45;1.88;;;;;;;7.42;62.67;101603.75;6265515;22;20344;-71
2023/01/03 00:44:07;;;;;;;5.43;1.70;;;;;;;7.44;62.64;101600.97;6293426;22;20071;-71
2023/01/03 00:46:34;;;;;;;8.82;2.53;;;;;;;7.73;61.78;101604.03;6294113;22;20075;-70
2023/01/03 00:49:01;;;;;;;6.32;1.60;;;;;;;7.76;61.80;101616.31;6294534;22;20076;-71
2023/01/03 00:51:30;;;;;;;10.13;2.55;;;;;;;7.65;61.69;101612.66;6292803;22;20051;-71
2023/01/03 00:53:58;;;;;;;7.25;1.77;;;;;;;7.50;62.13;101613.88;6293974;22;20035;-71
2023/01/03 00:56:28;;;;;;;3.67;1.38;;;;;;;7.31;62.34;101630.44;6294000;22;20079;-71
2023/01/03 00:58:55;;;;;;;4.43;1.42;;;;;;;7.24;62.55;101631.00;6293955;22;20039;-70
2023/01/03 01:01:31;;;;;;;4.03;1.33;;;;;;;7.12;62.87;101632.81;6293497;22;20031;-70
2023/01/03 01:04:22;;;;;;;6.75;1.70;;;;;;;7.41;61.68;101642.09;6292430;22;20011;-71
2023/01/03 01:06:52;;;;;;;6.40;1.80;;;;;;;7.56;61.34;101640.06;6292308;22;20030;-71
2023/01/03 01:09:24;;;;;;;6.25;1.33;;;;;;;7.26;61.79;101642.44;6292009;22;20038;-71
2023/01/03 01:11:51;;;;;;;6.20;1.73;;;;;;;7.54;61.04;101642.03;6291615;22;20083;-71
2023/01/03 01:14:20;;;;;;;4.18;1.40;;;;;;;7.26;61.76;101643.28;6290659;22;20449;-70
2023/01/03 01:16:51;;;;;;;12.35;1.70;;;;;;;6.97;61.94;101657.94;6291693;22;20024;-71
2023/01/03 01:19:20;;;;;;;5.55;1.02;;;;;;;7.08;61.17;101661.50;6292787;22;20023;-71
2023/01/03 01:21:47;;;;;;;5.55;1.70;;;;;;;6.98;61.09;101672.97;6290869;22;20122;-71
2023/01/03 01:24:13;;;;;;;5.47;1.38;;;;;;;6.93;61.35;101682.19;6292257;22;20366;-71
2023/01/03 01:26:44;;;;;;;5.57;1.83;;;;;;;6.88;61.51;101686.16;6293352;22;20035;-70
2023/01/03 01:29:12;;;;;;;3.83;1.48;;;;;;;6.86;61.31;101698.75;6265648;22;20043;-71
2023/01/03 01:31:39;;;;;;;8.93;2.10;;;;;;;6.83;61.55;101696.31;6293792;22;20023;-70
2023/01/03 01:34:06;;;;;;;7.68;1.95;;;;;;;7.04;61.08;101696.53;6283170;22;20031;-71
2023/01/03 01:36:36;;;;;;;7.88;1.83;;;;;;;7.05;60.77;101700.91;6295192;22;20020;-71
2023/01/03 01:39:05;;;;;;;5.57;1.60;;;;;;;6.70;61.73;101701.66;6293740;22;20019;-71
2023/01/03 01:44:44;;;;;;;4.60;1.80;;;;;;;6.86;61.05;101710.25;6291674;22;20020;-71
2023/01/03 01:47:16;;;;;;;6.47;1.35;;;;;;;6.86;61.25;101714.75;6293446;22;20083;-71
2023/01/03 01:49:45;;;;;;;6.53;1.92;;;;;;;7.01;60.79;101712.78;6294764;22;20035;-71
2023/01/03 01:52:15;;;;;;;11.15;3.58;;;;;;;7.00;61.16;101714.59;6293599;22;20047;-71
2023/01/03 01:54:42;;;;;;;7.18;2.00;;;;;;;6.84;61.23;101717.53;6294317;22;20035;-71
2023/01/03 01:57:14;;;;;;;7.32;2.15;;;;;;;6.83;61.31;101722.97;6294527;22;20039;-70
2023/01/03 01:59:41;;;;;;;6.40;1.85;;;;;;;6.78;61.48;101719.81;6294624;22;20024;-71
2023/01/03 02:02:10;;;;;;;9.75;2.17;;;;;;;6.90;61.03;101722.41;6294186;22;20035;-70
2023/01/03 02:04:39;;;;;;;4.63;1.70;;;;;;;6.84;61.59;101722.00;6295502;22;20024;-70
2023/01/03 02:07:23;;;;;;;7.72;1.52;;;;;;;6.66;61.97;101725.03;6296017;22;20071;-71
2023/01/03 02:09:54;;;;;;;6.75;2.13;;;;;;;6.57;61.61;101720.38;6295580;22;20027;-70
2023/01/03 02:15:32;;;;;;;5.05;1.77;;;;;;;6.35;61.18;101730.84;6293775;22;20047;-70
2023/01/03 02:18:21;;;;;;;7.00;1.38;;;;;;;6.21;60.78;101729.97;6296398;22;20039;-70
2023/01/03 02:21:16;;;;;;;3.75;1.20;;;;;;;6.53;59.55;101729.56;6294426;22;20027;-70
2023/01/03 02:24:06;;;;;;;5.68;1.20;;;;;;;6.29;59.57;101745.47;6249748;22;20432;-71
2023/01/03 02:26:32;;;;;;;3.95;1.33;;;;;;;6.29;58.18;101747.25;6293108;22;20037;-71
2023/01/03 02:29:16;;;;;;;7.45;1.83;;;;;;;6.28;58.59;101749.09;6274509;22;20130;-71
2023/01/03 02:32:15;;;;;;;2.25;0.77;;;;;;;6.21;58.43;101753.94;6244307;23;20433;-72
2023/01/03 02:34:46;;;;;;;6.00;1.30;;;;;;;6.34;57.66;101764.66;6244309;23;20091;-71
2023/01/03 02:37:28;;;;;;;7.13;1.40;;;;;;;6.36;57.60;101760.06;6216574;23;20091;-71
2023/01/03 02:40:11;;;;;;;6.07;0.93;;;;;;;6.28;57.19;101767.72;6244634;23;20106;-71
2023/01/03 02:43:01;;;;;;;3.05;1.08;;;;;;;6.12;57.58;101770.59;6243636;23;20445;-71
2023/01/03 02:45:54;;;;;;;3.03;0.93;;;;;;;6.03;56.95;101771.22;6196195;23;20016;-71
2023/01/03 02:48:42;;;;;;;5.50;1.30;;;;;;;5.94;57.18;101774.50;6242660;23;20044;-71
2023/01/03 02:51:17;;;;;;;5.30;1.20;;;;;;;6.09;56.79;101781.47;6243212;23;20030;-71
2023/01/03 02:53:47;;;;;;;7.22;1.20;;;;;;;6.01;56.80;101783.81;6243307;23;20016;-71
2023/01/03 02:56:20;;;;;;;4.47;1.83;;;;;;;5.84;57.15;101789.41;6232691;23;20024;-71
2023/01/03 02:58:51;;;;;;;7.00;1.65;;;;;;;5.88;56.92;101791.75;6244137;23;20023;-71
2023/01/03 03:01:19;;;;;;;7.28;1.38;;;;;;;5.76;56.87;101795.22;6243505;23;20016;-71
2023/01/03 03:03:47;;;;;;;4.75;1.30;;;;;;;5.86;56.76;101798.13;6242860;23;20028;-72
2023/01/03 03:06:25;;;;;;;5.03;1.08;;;;;;;5.93;56.82;101800.28;6243984;23;20028;-70
2023/01/03 03:08:51;;;;;;;4.60;1.08;;;;;;;5.84;57.03;101800.06;6229928;23;20026;-71
2023/01/03 03:14:13;;;;;;;3.47;0.90;;;;;;;5.73;57.59;101798.09;6243044;23;20342;-71
2023/01/03 03:16:48;;;;;;;4.00;1.10;;;;;;;5.78;57.63;101796.00;6243456;23;20020;-71
2023/01/03 03:25:50;;;;;;;4.20;1.38;;;;;;;5.61;58.61;101807.75;6242028;22;20496;-71
2023/01/03 03:28:34;;;;;;;6.60;1.52;;;;;;;5.52;59.25;101803.91;6242691;23;20416;-71
2023/01/03 03:31:10;;;;;;;2.85;1.27;;;;;;;5.66;59.42;101805.63;6266002;22;20055;-70
2023/01/03 03:33:48;;;;;;;8.00;1.42;;;;;;;5.82;58.93;101804.63;6274089;22;20036;-71
2023/01/03 03:36:39;;;;;;;5.05;1.50;;;;;;;5.66;59.72;101813.63;6272066;22;20022;-70
2023/01/03 03:44:59;;;;;;;5.78;2.05;;;;;;;5.47;60.02;101811.34;6273650;22;20030;-71
2023/01/03 03:44:59;;;;;;;6.57;1.65;;;;;;;5.50;59.82;101819.13;6271966;22;20102;-71
2023/01/03 03:47:42;;;;;;;10.55;1.55;;;;;;;5.36;60.14;101823.66;6273038;22;20019;-71
2023/01/03 03:50:25;;;;;;;;;;;;;;;5.41;60.05;101825.03;6273940;22;20099;-71
2023/01/03 03:52:56;;;;;;;6.50;1.73;;;;;;;5.31;60.26;101831.91;6274345;22;19999;-70
2023/01/03 03:55:26;;;;;;;;;;;;;;;5.31;60.00;101833.72;6272735;22;20050;-72
2023/01/03 03:57:59;;;;;;;5.60;1.10;;;;;;;5.39;59.79;101834.94;6274159;22;19925;-71
2023/01/03 04:00:31;;;;;;;5.80;1.65;;;;;;;5.44;59.42;101838.16;6273741;22;20102;-70
2023/01/03 04:03:01;;;;;;;3.80;1.27;;;;;;;5.35;59.60;101841.41;6273950;22;20020;-69
2023/01/03 04:05:33;;;;;;;6.82;1.23;;;;;;;5.16;59.97;101847.03;6274252;22;20145;-71
2023/01/03 04:08:00;;;;;;;4.65;1.30;;;;;;;5.35;59.70;101851.19;6273345;22;20030;-70
2023/01/03 04:10:26;;;;;;;8.90;2.03;;;;;;;5.08;60.14;101845.84;6269217;22;20019;-70
2023/01/03 04:12:59;;;;;;;3.90;1.30;;;;;;;4.92;60.52;101854.75;6273758;22;20031;-70
2023/01/03 04:15:25;;;;;;;4.40;1.42;;;;;;;4.89;60.46;101859.41;6273561;22;20102;-70
2023/01/03 04:17:52;;;;;;;5.65;1.20;;;;;;;4.93;60.58;101861.78;6273467;22;20023;-70
2023/01/03 04:20:19;;;;;;;6.68;1.55;;;;;;;4.87;60.88;101861.31;6273391;22;20086;-70
2023/01/03 04:22:45;;;;;;;6.10;1.80;;;;;;;5.11;60.31;101866.91;6273956;22;20027;-70
2023/01/03 04:25:12;;;;;;;6.60;1.67;;;;;;;4.97;60.29;101868.66;6273052;22;20083;-70
2023/01/03 04:27:38;;;;;;;7.53;1.60;;;;;;;5.14;59.65;101872.03;6272767;22;20097;-70
2023/01/03 04:30:06;;;;;;;6.60;2.20;;;;;;;4.77;60.68;101877.84;6273512;22;20028;-69
2023/01/03 04:32:32;;;;;;;9.93;1.92;;;;;;;4.80;60.52;101876.81;6262780;22;20436;-70
2023/01/03 04:34:58;;;;;;;5.25;1.33;;;;;;;4.96;60.01;101884.69;6273263;22;20095;-70
2023/01/03 04:37:25;;;;;;;4.90;1.60;;;;;;;5.03;60.04;101883.34;6272082;22;20039;-70
2023/01/03 04:39:51;;;;;;;9.27;1.88;;;;;;;4.99;60.25;101887.16;6272675;22;20027;-70
2023/01/03 04:45:04;;;;;;;11.48;1.90;;;;;;;5.02;60.09;101893.13;6272845;22;20020;-71
2023/01/03 04:47:30;;;;;;;8.20;2.00;;;;;;;4.99;60.04;101897.78;6274001;22;20095;-70
2023/01/03 04:49:57;;;;;;;7.90;2.25;;;;;;;5.01;60.13;101895.91;6272745;22;20034;-70
2023/01/03 04:52:23;;;;;;;8.45;2.00;;;;;;;4.88;60.78;101910.91;6258210;22;20020;-70
2023/01/03 04:54:50;;;;;;;6.32;2.13;;;;;;;5.10;60.10;101913.06;6273220;22;20043;-70
2023/01/03 06:54:58;;;;;;;12.07;2.25;;;;;;;4.18;63.54;102023.03;6207246;22;20023;-71
2023/01/03 06:57:24;;;;;;;15.00;2.92;;;;;;;4.07;64.07;102036.03;6209784;23;20087;-72
2023/01/03 06:59:53;;;;;;;15.98;2.92;;;;;;;3.94;64.12;102032.38;6212524;23;20021;-73
2023/01/03 07:02:20;;;;;;;13.65;3.03;;;;;;;3.98;64.32;102034.78;6219059;23;20096;-71
2023/01/03 07:04:47;;;;;;;11.13;2.40;;;;;;;4.06;64.24;102035.19;6271285;22;20019;-71
2023/01/03 07:07:13;;;;;;;13.23;3.03;;;;;;;4.11;64.08;102029.66;6273268;22;20054;-72
2023/01/03 07:09:40;;;;;;;8.20;2.55;;;;;;;3.93;64.40;102042.16;6272625;22;20019;-72
2023/01/03 07:14:56;;;;;;;10.52;2.65;;;;;;;4.06;63.94;102044.97;6201806;22;20022;-71
2023/01/03 07:17:22;;;;;;;9.85;2.83;;;;;;;3.94;64.63;102049.16;6273363;22;20019;-71
2023/01/03 07:19:49;;;;;;;12.88;2.75;;;;;;;3.93;64.44;102046.59;6274264;22;20444;-73
2023/01/03 07:22:15;;;;;;;14.65;3.67;;;;;;;4.06;63.75;102058.25;6273528;22;20042;-71
2023/01/03 07:24:42;;;;;;;13.63;2.92;;;;;;;4.00;64.37;102058.56;6272946;22;20039;-71
2023/01/03 07:27:08;;;;;;;17.50;3.55;;;;;;;4.09;63.83;102066.03;6272889;22;20038;-72
2023/01/03 07:29:34;;;;;;;16.17;3.20;;;;;;;3.90;64.42;102068.88;6246621;22;20020;-71
2023/01/03 07:32:01;;;;;;;11.55;3.20;;;;;;;3.89;64.62;102063.63;6272864;22;20098;-71
2023/01/03 07:34:28;;;;;;;13.88;3.00;;;;;;;3.96;64.53;102070.31;6273133;22;20046;-71
2023/01/03 07:36:54;;;;;;;11.75;3.50;;;;;;;3.82;65.21;102074.56;6273533;22;20027;-72
2023/01/03 07:39:20;;;;;;;11.77;3.40;;;;;;;3.92;64.96;102072.28;6273763;22;20026;-73
2023/01/03 07:44:32;;;;;;;13.55;3.47;;;;;;;3.88;65.06;102078.69;6271932;22;20039;-72
2023/01/03 07:46:58;;;;;;;16.40;4.30;;;;;;;3.85;64.82;102077.06;6271891;22;20024;-72
2023/01/03 07:49:25;;;;;;;27.15;4.15;;;;;;;3.70;65.54;102082.34;6273255;22;20020;-72
2023/01/03 07:51:51;;;;;;;11.48;3.75;;;;;;;3.81;65.63;102083.47;6273983;22;20091;-71
2023/01/03 07:54:18;;;;;;;14.30;3.08;;;;;;;3.99;64.30;102076.31;6273225;22;20012;-72
2023/01/03 07:56:44;;;;;;;19.85;4.13;;;;;;;4.07;63.91;102079.41;6272875;22;20026;-71
2023/01/03 07:59:11;;;;;;;12.40;3.55;;;;;;;3.91;65.15;102077.69;6272848;22;20026;-71
2023/01/03 08:01:37;;;;;;;18.65;3.80;;;;;;;3.72;65.77;102086.63;6273283;22;20019;-72
2023/01/03 08:04:04;;;;;;;16.98;4.65;;;;;;;3.62;66.01;102082.78;6273083;22;20125;-72
2023/01/03 08:06:31;;;;;;;20.02;5.20;;;;;;;3.74;65.44;102082.09;6273050;22;20355;-73
2023/01/03 08:14:28;;;;;;;14.27;3.70;;;;;;;3.70;65.02;102099.13;6272734;22;20356;-72
2023/01/03 08:16:55;;;;;;;12.95;3.47;;;;;;;3.83;65.06;102105.50;6272517;22;20028;-71
2023/01/03 08:19:23;;;;;;;17.52;3.72;;;;;;;3.88;65.13;102109.72;6273597;22;20099;-72
2023/01/03 08:21:49;;;;;;;18.13;3.70;;;;;;;3.90;64.65;102111.34;6273437;22;20440;-72
2023/01/03 08:24:16;;;;;;;9.35;3.42;;;;;;;3.92;64.66;102106.78;6273103;22;20029;-72
2023/01/03 08:26:43;;;;;;;15.82;3.55;;;;;;;3.94;64.74;102120.00;6273455;22;20043;-72
2023/01/03 08:29:10;;;;;;;13.23;4.43;;;;;;;4.03;64.35;102117.69;6272047;22;20094;-72
2023/01/03 08:31:41;;;;;;;14.88;3.70;;;;;;;3.76;64.79;102125.34;6271446;22;20421;-72
2023/01/03 08:34:11;;;;;;;10.77;3.75;;;;;;;3.78;64.92;102123.47;6272412;22;20024;-72
2023/01/03 08:36:50;;;;;;;22.70;4.10;;;;;;;3.88;64.99;102130.94;6272389;22;20035;-73
2023/01/03 08:39:22;;;;;;;17.02;4.07;;;;;;;3.71;65.60;102127.38;6273186;22;20023;-72
2023/01/03 08:41:54;;;;;;;14.32;3.85;;;;;;;3.61;65.38;102123.50;6272501;22;20028;-72
2023/01/03 08:44:20;;;;;;;;;;;;;;;3.60;65.57;102132.41;6273812;22;20026;-72
2023/01/03 08:46:50;;;;;;;18.88;4.60;;;;;;;3.82;64.97;102127.66;6272781;22;19915;-72
2023/01/03 08:49:18;;;;;;;16.00;4.18;;;;;;;3.83;65.13;102132.06;6272581;22;20340;-72
2023/01/03 08:51:44;;;;;;;12.50;4.68;;;;;;;4.01;64.19;102138.16;6272626;22;20031;-72
2023/01/03 08:54:11;;;;;;;13.63;3.67;;;;;;;4.07;64.65;102139.63;6271842;22;20079;-72
2023/01/03 08:56:38;;;;;;;9.52;3.58;;;;;;;3.82;64.40;102130.31;6271883;22;20448;-71
2023/01/03 08:59:05;;;;;;;12.65;3.30;;;;;;;3.82;64.31;102138.28;6272200;22;20027;-72
2023/01/03 09:01:31;;;;;;;13.40;3.60;;;;;;;3.94;64.00;102143.91;6272663;22;20483;-72
2023/01/03 09:03:58;;;;;;;15.82;3.20;;;;;;;3.89;63.71;102140.63;6272169;22;20088;-71
2023/01/03 16:07:09;;;;;;;18.90;9.57;;;;;;;4.26;60.11;102184.66;6236703;22;20000;-73
2023/01/03 16:33:48;;;;;;;22.13;11.10;;;;;;;4.07;60.92;102174.13;6195770;22;20047;-72
2023/01/03 17:35:32;;;;;;;33.50;16.17;;;;;;;3.96;62.08;102209.25;6214948;22;19997;-73
2023/01/03 17:37:59;;;;;;;34.97;14.68;;;;;;;3.86;62.52;102203.56;6242322;23;20016;-72
2023/01/03 17:40:47;;;;;;;33.60;14.57;;;;;;;3.95;62.47;102204.03;6239680;23;20012;-73
2023/01/03 18:10:20;;;;;;;29.77;15.38;;;;;;;3.05;66.16;102186.47;6225077;22;20122;-71
2023/01/03 18:33:07;;;;;;;35.63;17.02;;;;;;;2.69;68.57;102180.31;6246575;22;20060;-70
2023/01/03 18:35:34;;;;;;;30.58;17.15;;;;;;;2.80;68.29;102185.94;6236974;23;20028;-71
2023/01/03 18:38:04;;;;;;;33.42;17.48;;;;;;;2.61;68.67;102178.00;6250064;22;20039;-70
2023/01/03 18:40:30;;;;;;;37.67;18.27;;;;;;;2.66;68.40;102173.38;6242211;23;20009;-70
2023/01/03 18:43:08;;;;;;;37.78;19.20;;;;;;;2.33;70.38;102181.94;6251204;22;20031;-71
2023/01/03 18:45:36;;;;;;;34.78;17.80;;;;;;;2.31;70.08;102180.31;6251113;23;20024;-70
2023/01/03 18:48:03;;;;;;;39.63;18.88;;;;;;;2.36;70.37;102173.88;6252287;23;20041;-71
2023/01/03 18:50:30;;;;;;;39.50;19.33;;;;;;;2.70;69.59;102177.56;6251228;23;20031;-70
2023/01/03 18:53:03;;;;;;;29.20;17.35;;;;;;;2.84;68.55;102180.41;6252161;22;20028;-71
2023/01/03 18:55:32;;;;;;;34.88;18.75;;;;;;;2.60;69.19;102179.81;6251197;22;20028;-71
2023/01/03 18:58:34;;;;;;;30.17;18.63;;;;;;;2.65;69.17;102171.63;6251109;23;20017;-71
2023/01/03 19:01:00;;;;;;;39.63;18.92;;;;;;;2.88;68.26;102174.03;6269968;22;20051;-72
2023/01/03 19:03:30;;;;;;;37.63;18.73;;;;;;;2.55;69.46;102171.22;6270094;22;20020;-72
2023/01/03 19:05:59;;;;;;;33.50;18.35;;;;;;;2.63;68.88;102173.50;6269663;23;20028;-72
2023/01/03 19:08:30;;;;;;;39.45;19.52;;;;;;;2.76;68.87;102177.28;6271264;22;20019;-71
2023/01/03 19:11:04;;;;;;;34.00;18.35;;;;;;;2.84;69.31;102179.56;6271077;22;20039;-70
2023/01/03 19:13:48;;;;;;;40.20;20.00;;;;;;;2.80;68.97;102189.47;6243773;23;20024;-70
2023/01/03 19:16:25;;;;;;;34.28;20.23;;;;;;;2.55;69.89;102184.47;6258060;23;20004;-70
2023/01/03 19:18:52;;;;;;;46.25;20.92;;;;;;;2.67;69.54;102178.56;6268925;23;20016;-71
2023/01/03 19:21:20;;;;;;;33.53;20.55;;;;;;;2.42;69.92;102184.19;6271403;23;20007;-71
2023/01/03 19:23:56;;;;;;;37.38;20.92;;;;;;;2.29;70.82;102183.03;6270329;23;20449;-70
2023/01/03 19:26:37;;;;;;;47.50;21.05;;;;;;;2.50;70.56;102183.81;6269063;23;20064;-71
2023/01/03 19:29:10;;;;;;;36.60;20.90;;;;;;;2.31;70.79;102175.03;6269911;23;20491;-70
2023/01/03 19:31:43;;;;;;;38.72;20.80;;;;;;;2.27;71.37;102176.97;6263222;23;20032;-71
2023/01/03 19:34:21;;;;;;;41.13;19.20;;;;;;;1.93;71.72;102167.91;6240453;23;20005;-70
2023/01/03 19:36:48;;;;;;;42.75;18.85;;;;;;;2.30;70.78;102165.34;6240624;23;20036;-70
2023/01/03 19:39:16;;;;;;;27.77;18.20;;;;;;;2.07;71.04;102158.47;6240304;23;20025;-71
2023/01/03 19:44:39;;;;;;;34.13;18.20;;;;;;;2.29;70.01;102155.69;6240099;23;20020;-70
2023/01/03 19:47:11;;;;;;;36.13;18.25;;;;;;;2.28;69.60;102151.34;6239638;23;20015;-70
2023/01/03 19:49:38;;;;;;;37.20;18.42;;;;;;;2.49;69.13;102149.47;6239273;23;20051;-70
2023/01/03 19:52:04;;;;;;;31.58;17.25;;;;;;;2.35;69.29;102144.81;6239556;23;20067;-71
2023/01/03 19:54:30;;;;;;;34.53;17.17;;;;;;;2.60;68.62;102140.06;6239295;23;20004;-70
2023/01/03 19:57:00;;;;;;;37.47;18.17;;;;;;;2.33;69.49;102144.88;6238725;23;20013;-70
2023/01/03 19:59:33;;;;;;;34.20;17.00;;;;;;;2.12;70.38;102137.94;6239102;23;20000;-70
2023/01/03 20:02:02;;;;;;;31.08;16.42;;;;;;;2.33;68.70;102130.78;6238352;23;20029;-71
2023/01/03 20:04:48;;;;;;;29.08;15.65;;;;;;;1.85;69.87;102135.56;6239271;23;20018;-71
2023/01/03 20:07:15;;;;;;;40.55;16.83;;;;;;;2.49;68.87;102130.91;6238788;23;20028;-71
2023/01/03 20:09:42;;;;;;;38.10;16.85;;;;;;;2.32;68.77;102132.56;6239354;23;20033;-71
2023/01/03 20:12:14;;;;;;;33.85;16.08;;;;;;;2.41;68.71;102132.16;6221944;23;20486;-72
2023/01/03 20:14:47;;;;;;;28.20;16.23;;;;;;;2.42;68.70;102125.91;6211673;23;20036;-72
2023/01/03 20:17:22;;;;;;;36.15;16.25;;;;;;;2.29;68.84;102138.00;6212120;23;20330;-72
2023/01/03 20:19:49;;;;;;;29.67;15.02;;;;;;;2.64;67.68;102123.06;6211107;23;20029;-72
2023/01/03 20:22:21;;;;;;;21.75;14.55;;;;;;;2.33;69.06;102128.97;6211050;23;20051;-72
2023/01/03 20:25:30;;;;;;;28.05;14.50;;;;;;;2.42;68.15;102131.22;6211509;23;20036;-71
2023/01/03 20:27:58;;;;;;;25.17;13.48;;;;;;;2.43;67.42;102122.31;6210808;23;20027;-71
2023/01/03 20:30:28;;;;;;;27.35;13.80;;;;;;;2.38;68.43;102116.41;6211035;23;20118;-72
2023/01/03 20:32:55;;;;;;;33.42;13.55;;;;;;;2.14;69.26;102114.91;6210347;23;20040;-71
2023/01/03 20:35:24;;;;;;;29.63;15.18;;;;;;;2.44;68.02;102123.16;6211470;23;20395;-71
2023/01/03 20:38:11;;;;;;;26.60;14.32;;;;;;;2.27;68.48;102121.34;6210621;23;20027;-72
2023/01/03 20:40:38;;;;;;;28.33;13.13;;;;;;;2.14;68.92;102114.91;6210785;23;20100;-71
2023/01/03 20:43:04;;;;;;;29.70;12.65;;;;;;;2.07;69.55;102122.28;6211218;23;20024;-73
2023/01/03 20:45:32;;;;;;;28.92;14.95;;;;;;;1.89;70.22;102112.50;6211187;23;20020;-71
2023/01/03 20:47:59;;;;;;;29.27;13.80;;;;;;;2.25;68.67;102115.25;6210496;23;20028;-72
2023/01/03 20:50:27;;;;;;;25.13;13.05;;;;;;;2.16;69.13;102108.59;6210427;23;20049;-72
2023/01/03 20:52:54;;;;;;;25.75;13.38;;;;;;;2.00;69.47;102112.91;6211765;23;20349;-72
2023/01/03 20:55:22;;;;;;;22.63;13.00;;;;;;;1.82;69.98;102111.91;6233402;23;20109;-72
2023/01/03 20:57:49;;;;;;;34.70;14.02;;;;;;;2.11;69.48;102120.34;6236370;23;20040;-70
2023/01/03 21:00:23;;;;;;;24.27;13.88;;;;;;;2.19;69.43;102115.53;6235971;23;20032;-71
2023/01/03 21:02:50;;;;;;;22.58;13.18;;;;;;;2.14;68.95;102112.25;6237918;23;20044;-71
2023/01/03 21:05:17;;;;;;;27.00;13.68;;;;;;;2.02;69.59;102110.16;6238457;23;20013;-71
2023/01/03 21:10:35;;;;;;;22.67;13.43;;;;;;;1.92;69.92;102110.59;6235936;23;20016;-71
2023/01/03 21:13:01;;;;;;;26.35;13.07;;;;;;;2.05;69.77;102108.22;6238363;23;20031;-71
2023/01/03 21:15:28;;;;;;;24.67;14.35;;;;;;;2.11;69.57;102101.81;6237892;23;20017;-71
2023/01/03 21:17:54;;;;;;;27.15;13.98;;;;;;;2.24;69.55;102097.66;6230934;23;20035;-70
2023/01/03 21:20:23;;;;;;;24.33;13.68;;;;;;;2.11;69.61;102099.16;6239255;23;20036;-70
2023/01/03 21:22:50;;;;;;;21.30;13.68;;;;;;;1.99;69.69;102099.72;6238593;23;20043;-71
2023/01/03 21:25:25;;;;;;;22.65;12.93;;;;;;;2.03;69.96;102090.72;6237144;23;20036;-71
2023/01/03 21:27:51;;;;;;;21.63;12.63;;;;;;;1.97;69.97;102089.22;6219602;23;20024;-72
2023/01/03 21:30:20;;;;;;;21.90;12.93;;;;;;;2.03;69.93;102088.09;6212504;23;20059;-72
2023/01/03 21:32:46;;;;;;;21.90;12.52;;;;;;;2.14;69.64;102091.09;6255749;22;20413;-70
2023/01/03 21:35:21;;;;;;;26.10;12.05;;;;;;;2.01;70.05;102082.84;6272918;22;20028;-72
2023/01/03 21:37:50;;;;;;;22.92;13.27;;;;;;;2.13;69.91;102082.28;6272066;22;20026;-71
2023/01/03 21:40:25;;;;;;;20.77;12.32;;;;;;;2.32;68.59;102082.25;6272840;22;20040;-71
2023/01/03 21:42:58;;;;;;;19.63;11.55;;;;;;;2.29;69.17;102082.41;6242784;23;20016;-71
2023/01/03 21:45:33;;;;;;;23.33;12.13;;;;;;;2.13;69.43;102076.97;6242030;23;20044;-70
2023/01/03 21:48:03;;;;;;;18.60;11.95;;;;;;;2.22;69.30;102080.97;6241993;23;20361;-70
2023/01/03 21:50:31;;;;;;;18.55;11.88;;;;;;;2.26;69.70;102082.53;6241723;23;20042;-71
2023/01/03 21:52:57;;;;;;;24.80;12.88;;;;;;;2.34;69.00;102085.69;6240732;23;20028;-71
2023/01/03 21:55:24;;;;;;;21.92;12.05;;;;;;;2.19;69.35;102091.72;6242970;23;20529;-70
2023/01/03 21:57:51;;;;;;;24.65;12.32;;;;;;;2.38;68.98;102084.63;6243265;23;20046;-70
2023/01/03 22:00:18;;;;;;;18.42;11.30;;;;;;;2.35;68.77;102094.50;6242189;23;20043;-70
2023/01/03 22:05:31;;;;;;;19.13;11.32;;;;;;;2.37;69.91;102084.66;6241429;23;20012;-71
2023/01/03 22:07:59;;;;;;;22.88;11.88;;;;;;;2.38;69.12;102094.34;6242394;23;20413;-72
2023/01/03 22:10:27;;;;;;;18.60;10.90;;;;;;;2.46;69.54;102088.69;6240230;23;20022;-71
2023/01/03 22:13:02;;;;;;;19.00;9.98;;;;;;;2.22;70.32;102091.56;6244586;23;20016;-71
2023/01/03 22:15:28;;;;;;;16.90;9.77;;;;;;;2.40;70.34;102084.53;6244016;23;20116;-71
2023/01/03 22:17:55;;;;;;;19.85;10.02;;;;;;;2.53;69.67;102074.19;6244095;23;20147;-71
2023/01/03 22:20:24;;;;;;;22.17;10.93;;;;;;;2.70;68.96;102073.38;6217674;23;20044;-71
2023/01/03 22:22:51;;;;;;;14.43;9.32;;;;;;;2.66;69.34;102065.56;6274806;22;20050;-71
2023/01/03 22:25:21;;;;;;;14.98;9.88;;;;;;;2.76;68.93;102065.97;6297014;22;20014;-71
2023/01/03 22:27:47;;;;;;;21.80;9.90;;;;;;;2.58;69.51;102066.88;6300116;22;20075;-71
2023/01/03 22:30:17;;;;;;;22.33;11.02;;;;;;;2.64;69.17;102074.53;6300870;22;20034;-71
2023/01/03 22:32:43;;;;;;;16.52;9.63;;;;;;;2.64;69.37;102070.09;6300886;22;20011;-71
2023/01/03 22:35:12;;;;;;;22.83;9.27;;;;;;;2.40;69.82;102066.84;6300805;22;20068;-69
2023/01/03 22:37:39;;;;;;;20.52;9.82;;;;;;;2.52;70.33;102062.75;6301097;22;20273;-72
2023/01/03 22:40:14;;;;;;;17.00;9.45;;;;;;;2.54;69.98;102058.22;6300512;22;20436;-71
2023/01/03 22:42:40;;;;;;;16.77;10.10;;;;;;;2.64;69.78;102056.84;6300401;22;20024;-71
2023/01/03 22:45:08;;;;;;;14.73;8.70;;;;;;;2.64;69.67;102050.69;6299164;22;20079;-70
2023/01/03 22:47:36;;;;;;;15.75;9.60;;;;;;;2.34;70.70;102053.91;6300892;22;20033;-71
2023/01/03 22:50:06;;;;;;;27.17;9.77;;;;;;;2.53;69.95;102053.00;6299703;22;20027;-71
2023/01/03 22:52:37;;;;;;;16.43;9.17;;;;;;;2.48;70.39;102049.72;6299827;22;20050;-70
2023/01/03 22:55:04;;;;;;;16.38;9.82;;;;;;;2.56;69.97;102045.78;6300220;22;20011;-71
2023/01/03 22:57:30;;;;;;;19.77;9.80;;;;;;;2.47;69.98;102048.00;6300935;22;20007;-72
2023/01/03 22:59:57;;;;;;;21.10;9.57;;;;;;;2.59;69.72;102044.78;6301328;22;20352;-70
2023/01/03 23:02:23;;;;;;;19.95;10.48;;;;;;;2.42;70.43;102045.59;6300940;22;20008;-70
2023/01/03 23:04:54;;;;;;;15.10;8.93;;;;;;;2.44;70.17;102038.41;6300776;22;20381;-70
2023/01/03 23:07:21;;;;;;;20.63;10.13;;;;;;;2.06;71.49;102037.63;6300857;22;20047;-70
2023/01/03 23:09:47;;;;;;;17.52;8.65;;;;;;;1.75;73.23;102033.75;6300389;22;20030;-70
2023/01/03 23:14:59;;;;;;;18.80;9.65;;;;;;;1.84;72.51;102025.38;6300449;22;20039;-70
2023/01/03 23:20:11;;;;;;;19.58;9.05;;;;;;;1.94;72.96;102028.47;6299084;22;20039;-70
2023/01/03 23:22:37;;;;;;;19.50;9.38;;;;;;;1.98;72.63;102023.91;6301155;22;20004;-70
2023/01/03 23:25:04;;;;;;;14.95;9.45;;;;;;;2.05;72.02;102018.22;6299592;22;20024;-70
2023/01/03 23:27:31;;;;;;;18.30;9.23;;;;;;;2.03;72.56;102016.63;6267405;22;20015;-70
2023/01/03 23:29:57;;;;;;;20.65;9.50;;;;;;;1.76;72.74;102006.34;6294185;22;20095;-71
2023/01/03 23:32:24;;;;;;;20.60;9.48;;;;;;;1.94;72.85;102002.00;6300031;22;20039;-70
2023/01/03 23:34:50;;;;;;;16.52;9.13;;;;;;;1.94;72.67;101997.56;6300594;22;20035;-71
2023/01/03 23:37:17;;;;;;;22.38;9.45;;;;;;;1.94;73.20;101991.44;6300494;22;20008;-71
2023/01/03 23:39:43;;;;;;;20.13;9.02;;;;;;;1.92;73.01;101983.56;6300367;22;20035;-70